createdAt,value
2023-04-28T00:01:05.931Z,7.33
2023-04-28T00:06:08.422Z,8.60
2023-04-28T00:11:11.529Z,11.87
2023-04-28T00:16:13.914Z,15.03
2023-04-28T00:21:18.254Z,7.43
2023-04-28T00:26:21.278Z,7.83
2023-04-28T00:31:24.439Z,7.80
2023-04-28T00:36:27.122Z,7.70
2023-04-28T00:41:29.623Z,7.43
2023-04-28T00:46:34.324Z,8.07
2023-04-28T00:51:36.738Z,8.23
2023-04-28T00:56:39.165Z,7.93
2023-04-28T01:01:41.719Z,8.30
2023-04-28T01:06:46.257Z,7.97
2023-04-28T01:11:48.843Z,7.93
2023-04-28T01:17:10.894Z,7.77
2023-04-28T01:22:16.996Z,8.40
2023-04-28T01:27:20.030Z,8.60
2023-04-28T01:32:22.398Z,8.10
2023-04-28T01:37:24.860Z,8.47
2023-04-28T01:42:29.317Z,8.83
2023-04-28T01:47:32.300Z,10.17
2023-04-28T01:52:34.720Z,8.67
2023-04-28T01:57:40.502Z,9.23
2023-04-28T02:02:43.022Z,9.17
2023-04-28T02:07:45.758Z,8.00
2023-04-28T02:12:48.067Z,8.57
2023-04-28T02:17:50.640Z,8.37
2023-04-28T02:22:52.986Z,9.63
2023-04-28T02:27:55.433Z,8.90
2023-04-28T02:32:57.802Z,8.50
2023-04-28T02:38:01.084Z,9.23
2023-04-28T02:43:03.500Z,9.73
2023-04-28T02:48:06.009Z,9.13
2023-04-28T02:53:08.339Z,8.83
2023-04-28T02:58:10.685Z,7.40
2023-04-28T03:03:13.619Z,8.17
2023-04-28T03:08:16.400Z,8.97
2023-04-28T03:13:18.718Z,9.30
2023-04-28T03:18:22.847Z,11.00
2023-04-28T03:23:25.266Z,10.87
2023-04-28T03:28:27.882Z,10.43
2023-04-28T03:33:30.429Z,8.87
2023-04-28T03:38:35.353Z,9.23
2023-04-28T03:43:37.794Z,9.37
2023-04-28T03:48:56.608Z,10.47
2023-04-28T03:54:00.001Z,8.77
2023-04-28T03:59:02.565Z,8.97
2023-04-28T04:04:05.861Z,9.97
2023-04-28T04:09:08.505Z,9.90
2023-04-28T04:14:11.407Z,10.00
2023-04-28T04:19:14.391Z,7.80
2023-04-28T04:24:18.327Z,6.73
2023-04-28T04:29:21.094Z,7.20
2023-04-28T04:34:23.747Z,7.90
2023-04-28T04:39:27.295Z,7.67
2023-04-28T04:44:29.675Z,7.03
2023-04-28T04:49:32.608Z,7.33
2023-04-28T04:54:34.940Z,6.97
2023-04-28T04:59:37.869Z,6.60
2023-04-28T05:04:45.332Z,6.20
2023-04-28T05:09:50.052Z,6.67
2023-04-28T05:14:52.609Z,7.30
2023-04-28T05:19:56.872Z,6.53
2023-04-28T05:25:00.068Z,6.70
2023-04-28T05:30:02.580Z,6.77
2023-04-28T05:35:07.231Z,7.53
2023-04-28T05:40:10.556Z,8.30
2023-04-28T05:45:15.979Z,8.33
2023-04-28T05:50:21.392Z,8.80
2023-04-28T05:55:29.709Z,8.63
2023-04-28T06:00:40.301Z,7.20
2023-04-28T06:05:44.063Z,7.80
2023-04-28T06:10:48.519Z,7.33
2023-04-28T06:15:53.002Z,7.87
2023-04-28T06:20:57.736Z,6.77
2023-04-28T06:26:00.918Z,7.50
2023-04-28T06:31:03.441Z,7.60
2023-04-28T06:36:06.283Z,7.73
2023-04-28T06:41:08.773Z,8.77
2023-04-28T06:46:14.174Z,8.40
2023-04-28T06:51:18.165Z,8.13
2023-04-28T06:56:20.808Z,8.00
2023-04-28T07:01:24.058Z,6.67
2023-04-28T07:06:27.924Z,7.57
2023-04-28T07:11:30.542Z,7.57
2023-04-28T07:16:32.977Z,7.63
2023-04-28T07:21:35.419Z,6.00
2023-04-28T07:26:37.754Z,5.50
2023-04-28T07:31:40.252Z,6.00
2023-04-28T07:36:42.893Z,5.83
2023-04-28T07:41:45.371Z,6.90
2023-04-28T07:46:47.801Z,7.13
2023-04-28T07:51:53.970Z,7.10
2023-04-28T07:56:58.432Z,6.67
2023-04-28T08:02:01.050Z,5.63
2023-04-28T08:07:04.020Z,5.87
2023-04-28T08:12:06.413Z,5.83
2023-04-28T08:17:09.740Z,5.40
2023-04-28T08:22:12.863Z,6.30
2023-04-28T08:27:15.285Z,6.90
2023-04-28T08:32:17.903Z,5.97
2023-04-28T08:37:20.617Z,6.83
2023-04-28T08:42:23.095Z,5.10
2023-04-28T08:47:38.895Z,5.20
2023-04-28T08:52:42.972Z,5.53
2023-04-28T08:57:55.543Z,6.27
2023-04-28T09:02:58.331Z,6.03
2023-04-28T09:08:02.993Z,6.00
2023-04-28T09:13:05.680Z,5.80
2023-04-28T09:18:09.021Z,5.90
2023-04-28T09:23:19.140Z,6.43
2023-04-28T09:28:22.578Z,6.47
2023-04-28T09:33:25.316Z,6.97
2023-04-28T09:38:27.812Z,6.67
2023-04-28T09:43:36.593Z,6.93
2023-04-28T09:48:39.208Z,7.47
2023-04-28T09:53:41.850Z,6.60
2023-04-28T09:58:45.402Z,6.00
2023-04-28T10:03:49.721Z,7.10
2023-04-28T10:08:52.461Z,6.77
2023-04-28T10:13:55.508Z,6.67
2023-04-28T10:18:58.267Z,7.57
2023-04-28T10:24:10.917Z,7.57
2023-04-28T10:29:13.734Z,8.13
2023-04-28T10:34:23.400Z,7.77
2023-04-28T10:39:25.759Z,9.00
2023-04-28T10:44:31.284Z,7.73
2023-04-28T10:50:12.413Z,7.17
2023-04-28T10:55:36.815Z,7.20
2023-04-28T11:00:40.434Z,6.30
2023-04-28T11:06:23.186Z,6.90
2023-04-28T11:11:39.300Z,7.23
2023-04-28T11:16:51.193Z,7.17
2023-04-28T11:21:56.472Z,5.63
2023-04-28T11:27:02.894Z,5.10
2023-04-28T11:32:06.808Z,4.67
2023-04-28T11:37:28.234Z,5.47
2023-04-28T11:42:34.150Z,5.10
2023-04-28T11:47:37.185Z,4.47
2023-04-28T11:52:51.747Z,5.57
2023-04-28T11:58:18.425Z,5.63
2023-04-28T12:03:20.944Z,3.80
2023-04-28T12:08:30.176Z,3.70
2023-04-28T12:13:32.646Z,2.70
2023-04-28T12:18:36.772Z,2.97
2023-04-28T12:23:40.120Z,1.93
2023-04-28T12:28:42.759Z,2.20
2023-04-28T12:33:45.276Z,2.13
2023-04-28T12:38:50.789Z,2.30
2023-04-28T12:43:53.944Z,2.30
2023-04-28T12:48:58.091Z,2.07
2023-04-28T12:54:00.451Z,1.60
2023-04-28T12:59:03.933Z,1.50
2023-04-28T13:04:07.672Z,2.23
2023-04-28T13:09:17.025Z,1.60
2023-04-28T13:14:37.936Z,1.50
2023-04-28T13:19:41.010Z,1.20
2023-04-28T13:24:43.796Z,1.13
2023-04-28T13:29:46.420Z,1.03
2023-04-28T13:34:49.158Z,0.90
2023-04-28T13:39:51.594Z,1.10
2023-04-28T13:44:54.059Z,0.90
2023-04-28T13:49:56.498Z,0.97
2023-04-28T13:54:58.836Z,0.70
2023-04-28T14:00:02.454Z,1.00
2023-04-28T14:05:10.534Z,1.20
2023-04-28T14:10:13.015Z,0.80
2023-04-28T14:15:16.535Z,1.00
2023-04-28T14:20:19.011Z,0.80
2023-04-28T14:25:21.886Z,0.90
2023-04-28T14:30:24.957Z,1.03
2023-04-28T14:35:27.579Z,0.83
2023-04-28T14:40:29.982Z,0.80
2023-04-28T14:45:32.587Z,1.00
2023-04-28T14:50:35.407Z,0.80
2023-04-28T14:55:37.878Z,0.90
2023-04-28T15:00:40.448Z,0.70
2023-04-28T15:05:44.406Z,0.80
2023-04-28T15:10:46.978Z,1.07
2023-04-28T15:15:51.267Z,1.07
2023-04-28T15:20:55.873Z,0.93
2023-04-28T15:25:59.994Z,1.10
2023-04-28T15:31:03.384Z,1.63
2023-04-28T15:36:06.085Z,1.07
2023-04-28T15:41:09.545Z,1.20
2023-04-28T15:46:12.496Z,1.10
2023-04-28T15:51:14.892Z,0.90
2023-04-28T15:56:19.646Z,1.20
2023-04-28T16:01:23.025Z,1.50
2023-04-28T16:06:26.024Z,1.30
2023-04-28T16:11:30.031Z,1.00
2023-04-28T16:16:32.379Z,0.90
2023-04-28T16:21:35.868Z,1.20
2023-04-28T16:26:38.270Z,1.30
2023-04-28T16:31:40.833Z,1.30
2023-04-28T16:36:43.254Z,1.10
2023-04-28T16:41:47.909Z,1.47
2023-04-28T16:46:50.306Z,1.37
2023-04-28T16:52:04.349Z,1.37
2023-04-28T16:57:06.958Z,1.40
2023-04-28T17:02:09.352Z,1.30
2023-04-28T17:07:11.835Z,1.70
2023-04-28T17:12:15.610Z,1.40
2023-04-28T17:17:18.516Z,1.80
2023-04-28T17:22:21.093Z,1.40
2023-04-28T17:27:24.193Z,1.23
2023-04-28T17:32:27.581Z,1.50
2023-04-28T17:37:33.963Z,1.47
2023-04-28T17:42:36.479Z,1.30
2023-04-28T17:47:38.970Z,1.60
2023-04-28T17:52:43.958Z,1.73
2023-04-28T17:57:46.657Z,1.40
2023-04-28T18:02:52.863Z,1.00
2023-04-28T18:08:04.373Z,0.93
2023-04-28T18:13:09.175Z,1.40
2023-04-28T18:18:11.919Z,1.10
2023-04-28T18:23:14.624Z,1.30
2023-04-28T18:28:17.182Z,1.87
2023-04-28T18:33:22.855Z,1.80
2023-04-28T18:38:26.461Z,1.77
2023-04-28T18:43:28.981Z,1.60
2023-04-28T18:48:32.327Z,1.80
2023-04-28T18:53:36.240Z,2.03
2023-04-28T18:58:41.110Z,2.33
2023-04-28T19:03:44.234Z,2.70
2023-04-28T19:08:46.722Z,2.23
2023-04-28T19:13:51.969Z,2.70
2023-04-28T19:18:54.723Z,2.30
2023-04-28T19:24:04.793Z,2.40
2023-04-28T19:29:07.226Z,2.40
2023-04-28T19:34:15.618Z,2.03
2023-04-28T19:39:18.160Z,1.47
2023-04-28T19:44:20.930Z,1.83
2023-04-28T19:49:23.487Z,1.60
2023-04-28T19:54:26.441Z,1.57
2023-04-28T19:59:29.161Z,1.90
2023-04-28T20:04:31.833Z,1.90
2023-04-28T20:09:38.149Z,1.90
2023-04-28T20:14:40.617Z,1.90
2023-04-28T20:19:44.633Z,2.13
2023-04-28T20:24:47.385Z,2.07
2023-04-28T20:29:50.139Z,1.83
2023-04-28T20:34:52.729Z,2.17
2023-04-28T20:39:57.882Z,1.57
2023-04-28T20:45:00.338Z,1.80
2023-04-28T20:50:03.571Z,1.90
2023-04-28T20:55:06.894Z,1.90
2023-04-28T21:00:10.978Z,1.73
2023-04-28T21:05:13.518Z,1.67
2023-04-28T21:10:15.841Z,2.20
2023-04-28T21:15:18.260Z,2.30
2023-04-28T21:20:20.919Z,2.43
2023-04-28T21:25:23.364Z,1.90
2023-04-28T21:30:27.099Z,2.07
2023-04-28T21:35:29.477Z,1.73
2023-04-28T21:40:31.856Z,2.20
2023-04-28T21:45:34.288Z,1.60
2023-04-28T21:50:37.713Z,1.70
2023-04-28T21:55:40.303Z,1.57
2023-04-28T22:00:45.204Z,2.20
2023-04-28T22:05:47.533Z,1.50
2023-04-28T22:10:49.927Z,1.53
2023-04-28T22:15:52.602Z,1.30
2023-04-28T22:20:54.963Z,1.47
2023-04-28T22:26:00.223Z,1.50
2023-04-28T22:31:02.563Z,1.20
2023-04-28T22:36:05.555Z,1.50
2023-04-28T22:41:07.875Z,1.50
2023-04-28T22:46:10.608Z,1.40
2023-04-28T22:51:13.077Z,1.53
2023-04-28T22:56:16.084Z,1.50
2023-04-28T23:01:18.534Z,1.60
2023-04-28T23:06:20.873Z,1.60
2023-04-28T23:11:24.541Z,1.70
2023-04-28T23:16:27.101Z,1.80
2023-04-28T23:21:29.490Z,1.53
2023-04-28T23:26:31.840Z,1.37
2023-04-28T23:31:40.013Z,1.30
2023-04-28T23:36:42.579Z,1.37
2023-04-28T23:41:44.964Z,1.23
2023-04-28T23:46:49.501Z,1.70
2023-04-28T23:51:52.060Z,1.17
2023-04-28T23:56:56.549Z,1.40
